createdAt,value
2023-10-23T00:01:22.660Z,13.51
2023-10-23T00:03:50.372Z,13.45
2023-10-23T00:06:17.575Z,13.41
2023-10-23T00:08:44.432Z,13.35
2023-10-23T00:11:22.387Z,13.32
2023-10-23T00:13:49.509Z,13.26
2023-10-23T00:16:16.278Z,13.20
2023-10-23T00:18:43.259Z,13.15
2023-10-23T00:21:10.234Z,13.10
2023-10-23T00:23:37.067Z,13.09
2023-10-23T00:26:03.944Z,13.02
2023-10-23T00:28:30.742Z,12.97
2023-10-23T00:30:58.336Z,13.00
2023-10-23T00:33:27.438Z,12.99
2023-10-23T00:35:54.987Z,12.97
2023-10-23T00:38:23.460Z,13.03
2023-10-23T00:40:50.348Z,12.98
2023-10-23T00:43:23.467Z,13.05
2023-10-23T00:45:54.127Z,13.06
2023-10-23T00:48:23.187Z,12.99
2023-10-23T00:50:51.832Z,12.89
2023-10-23T00:53:20.290Z,12.94
2023-10-23T00:55:47.672Z,12.94
2023-10-23T00:58:16.193Z,12.85
2023-10-23T01:00:45.535Z,12.81
2023-10-23T01:03:13.185Z,12.79
2023-10-23T01:05:40.216Z,12.81
2023-10-23T01:08:07.496Z,12.81
2023-10-23T01:10:34.846Z,12.74
2023-10-23T01:13:05.870Z,12.79
2023-10-23T01:15:32.896Z,12.71
2023-10-23T01:18:01.214Z,12.55
2023-10-23T01:20:29.532Z,12.51
2023-10-23T01:23:00.896Z,12.42
2023-10-23T01:25:29.570Z,12.40
2023-10-23T01:27:56.507Z,12.36
2023-10-23T01:30:23.601Z,12.42
2023-10-23T01:32:50.728Z,12.40
2023-10-23T01:35:17.779Z,12.41
2023-10-23T01:37:46.278Z,12.34
2023-10-23T01:40:13.315Z,12.31
2023-10-23T01:42:40.952Z,12.26
2023-10-23T01:45:08.807Z,12.21
2023-10-23T01:47:36.923Z,12.14
2023-10-23T01:50:03.875Z,12.04
2023-10-23T01:52:30.628Z,12.04
2023-10-23T01:54:59.537Z,11.94
2023-10-23T01:57:26.406Z,11.85
2023-10-23T01:59:53.816Z,11.79
2023-10-23T02:02:20.545Z,11.69
2023-10-23T02:04:47.499Z,11.63
2023-10-23T02:07:14.509Z,11.46
2023-10-23T02:09:41.449Z,11.47
2023-10-23T02:12:08.508Z,11.45
2023-10-23T02:14:35.308Z,11.41
2023-10-23T02:17:02.235Z,11.35
2023-10-23T02:19:31.480Z,11.29
2023-10-23T02:21:58.533Z,11.33
2023-10-23T02:24:25.431Z,11.31
2023-10-23T02:26:52.875Z,11.31
2023-10-23T02:29:19.649Z,11.31
2023-10-23T02:31:46.522Z,11.36
2023-10-23T02:34:13.384Z,11.29
2023-10-23T02:36:40.371Z,11.21
2023-10-23T02:39:07.518Z,11.24
2023-10-23T02:41:34.344Z,11.18
2023-10-23T02:44:01.331Z,11.08
2023-10-23T02:46:28.291Z,11.05
2023-10-23T02:48:55.306Z,11.03
2023-10-23T02:51:22.148Z,10.92
2023-10-23T02:53:48.999Z,10.87
2023-10-23T02:56:15.928Z,10.94
2023-10-23T02:58:42.785Z,10.87
2023-10-23T03:01:16.728Z,10.78
2023-10-23T03:03:45.097Z,10.74
2023-10-23T03:06:12.154Z,10.66
2023-10-23T03:08:39.077Z,10.63
2023-10-23T03:11:06.465Z,10.57
2023-10-23T03:13:34.020Z,10.57
2023-10-23T03:16:01.143Z,10.45
2023-10-23T03:18:28.302Z,10.37
2023-10-23T03:21:00.448Z,10.34
2023-10-23T03:23:29.516Z,10.26
2023-10-23T03:25:57.465Z,10.37
2023-10-23T03:28:24.732Z,10.37
2023-10-23T03:30:51.607Z,10.31
2023-10-23T03:33:18.607Z,10.35
2023-10-23T03:35:45.955Z,10.34
2023-10-23T03:38:14.085Z,10.33
2023-10-23T03:40:40.866Z,10.24
2023-10-23T03:43:07.868Z,10.26
2023-10-23T03:45:38.711Z,10.26
2023-10-23T03:48:06.118Z,10.20
2023-10-23T03:50:37.233Z,10.14
2023-10-23T03:53:04.216Z,10.15
2023-10-23T03:55:31.009Z,10.12
2023-10-23T03:57:57.825Z,10.06
2023-10-23T04:00:24.649Z,10.02
2023-10-23T04:02:53.447Z,9.99
2023-10-23T04:05:20.354Z,10.04
2023-10-23T04:07:47.273Z,9.95
2023-10-23T04:10:16.891Z,9.91
2023-10-23T04:12:43.711Z,9.83
2023-10-23T04:15:10.904Z,9.84
2023-10-23T04:17:37.656Z,9.88
2023-10-23T04:20:05.629Z,9.87
2023-10-23T04:22:32.676Z,9.85
2023-10-23T04:24:59.483Z,9.93
2023-10-23T04:27:26.315Z,9.90
2023-10-23T04:29:53.099Z,9.93
2023-10-23T04:32:19.945Z,9.93
2023-10-23T04:34:46.733Z,9.94
2023-10-23T04:37:13.438Z,9.94
2023-10-23T04:39:40.492Z,9.89
2023-10-23T04:42:07.549Z,9.90
2023-10-23T04:44:35.303Z,9.86
2023-10-23T04:47:02.228Z,9.78
2023-10-23T04:49:29.424Z,9.75
2023-10-23T04:51:56.252Z,9.81
2023-10-23T04:54:23.107Z,9.79
2023-10-23T04:56:49.861Z,9.87
2023-10-23T04:59:16.743Z,9.86
2023-10-23T05:01:43.582Z,9.84
2023-10-23T05:04:10.591Z,9.86
2023-10-23T05:06:37.695Z,9.90
2023-10-23T05:09:05.443Z,9.88
2023-10-23T05:11:33.890Z,9.86
2023-10-23T05:14:00.663Z,9.76
2023-10-23T05:16:27.600Z,9.79
2023-10-23T05:18:54.588Z,9.72
2023-10-23T05:21:21.413Z,9.70
2023-10-23T05:23:48.171Z,9.73
2023-10-23T05:26:16.257Z,9.79
2023-10-23T05:28:43.244Z,9.83
2023-10-23T05:31:10.911Z,9.85
2023-10-23T05:33:38.564Z,9.94
2023-10-23T05:36:06.996Z,10.01
2023-10-23T05:38:34.075Z,10.02
2023-10-23T05:41:02.142Z,10.08
2023-10-23T05:43:29.443Z,10.07
2023-10-23T05:45:56.970Z,10.12
2023-10-23T05:48:24.510Z,10.19
2023-10-23T05:51:06.136Z,10.22
2023-10-23T05:53:33.595Z,10.21
2023-10-23T05:56:07.150Z,10.32
2023-10-23T05:58:35.217Z,10.33
2023-10-23T06:01:09.730Z,10.28
2023-10-23T06:03:37.512Z,10.28
2023-10-23T06:06:05.455Z,10.26
2023-10-23T06:08:32.365Z,10.25
2023-10-23T06:10:59.174Z,10.35
2023-10-23T06:13:26.075Z,10.38
2023-10-23T06:15:53.394Z,10.39
2023-10-23T06:18:21.137Z,10.37
2023-10-23T06:20:48.025Z,10.35
2023-10-23T06:23:15.033Z,10.35
2023-10-23T06:25:41.870Z,10.36
2023-10-23T06:28:08.782Z,10.33
2023-10-23T06:30:38.693Z,10.40
2023-10-23T06:33:05.522Z,10.43
2023-10-23T06:35:32.523Z,10.51
2023-10-23T06:37:59.385Z,10.55
2023-10-23T06:40:26.347Z,10.43
2023-10-23T06:42:53.075Z,10.48
2023-10-23T06:45:19.857Z,10.45
2023-10-23T06:47:50.662Z,10.47
2023-10-23T06:50:18.378Z,10.51
2023-10-23T06:52:46.190Z,10.52
2023-10-23T06:55:13.841Z,10.53
2023-10-23T06:57:41.150Z,10.51
2023-10-23T07:00:08.830Z,10.50
2023-10-23T07:02:35.750Z,10.51
2023-10-23T07:05:02.922Z,10.45
2023-10-23T07:07:30.696Z,10.41
2023-10-23T07:10:01.627Z,10.43
2023-10-23T07:12:28.693Z,10.45
2023-10-23T07:14:55.520Z,10.45
2023-10-23T07:17:22.448Z,10.47
2023-10-23T07:19:49.293Z,10.52
2023-10-23T07:22:16.344Z,10.53
2023-10-23T07:24:43.293Z,10.53
2023-10-23T07:27:13.441Z,10.49
2023-10-23T07:29:40.577Z,10.51
2023-10-23T07:32:07.979Z,10.59
2023-10-23T07:34:34.967Z,10.60
2023-10-23T07:37:02.255Z,10.56
2023-10-23T07:39:29.099Z,10.67
2023-10-23T07:41:55.871Z,10.72
2023-10-23T07:44:22.955Z,10.78
2023-10-23T07:46:49.953Z,10.90
2023-10-23T07:49:17.705Z,11.00
2023-10-23T07:51:45.955Z,11.08
2023-10-23T07:54:12.836Z,11.14
2023-10-23T07:56:39.600Z,11.22
2023-10-23T07:59:07.955Z,11.26
2023-10-23T08:01:35.328Z,11.37
2023-10-23T08:04:02.264Z,11.48
2023-10-23T08:06:29.215Z,11.53
2023-10-23T08:08:56.030Z,11.53
2023-10-23T08:11:22.796Z,11.62
2023-10-23T08:13:49.869Z,11.68
2023-10-23T08:16:16.773Z,11.64
2023-10-23T08:18:44.035Z,11.61
2023-10-23T08:21:16.462Z,11.60
2023-10-23T08:23:45.897Z,11.57
2023-10-23T08:26:13.713Z,11.65
2023-10-23T08:31:20.632Z,11.83
2023-10-23T08:33:57.606Z,11.90
2023-10-23T08:36:24.595Z,12.01
2023-10-23T08:38:51.549Z,12.10
2023-10-23T08:41:18.573Z,12.02
2023-10-23T08:43:45.570Z,12.08
2023-10-23T08:46:12.419Z,12.09
2023-10-23T08:48:39.604Z,12.11
2023-10-23T08:51:08.558Z,12.25
2023-10-23T08:53:51.992Z,12.45
2023-10-23T08:56:26.841Z,12.67
2023-10-23T08:59:00.432Z,12.88
2023-10-23T09:01:28.752Z,13.08
2023-10-23T09:04:03.311Z,13.21
2023-10-23T09:06:33.450Z,13.38
2023-10-23T09:09:01.298Z,13.49
2023-10-23T09:11:48.574Z,13.60
2023-10-23T09:14:27.323Z,13.72
2023-10-23T09:16:56.925Z,13.81
2023-10-23T09:19:38.801Z,13.99
2023-10-23T09:22:10.008Z,14.05
2023-10-23T09:24:38.640Z,14.13
2023-10-23T09:27:05.826Z,14.24
2023-10-23T09:29:34.125Z,14.44
2023-10-23T09:32:01.251Z,14.62
2023-10-23T09:34:30.412Z,14.72
2023-10-23T09:36:57.416Z,14.75
2023-10-23T09:39:24.627Z,14.79
2023-10-23T09:41:52.502Z,14.84
2023-10-23T09:44:19.314Z,14.78
2023-10-23T09:46:49.427Z,14.72
2023-10-23T09:49:17.855Z,14.63
2023-10-23T09:51:51.209Z,14.59
2023-10-23T09:54:22.601Z,14.61
2023-10-23T09:56:53.251Z,14.69
2023-10-23T09:59:26.349Z,14.56
2023-10-23T10:01:58.432Z,14.57
2023-10-23T10:04:51.761Z,14.62
2023-10-23T10:07:28.347Z,14.66
2023-10-23T10:09:56.298Z,14.76
2023-10-23T10:12:24.841Z,14.74
2023-10-23T10:14:54.395Z,14.73
2023-10-23T10:17:21.772Z,14.72
2023-10-23T10:19:50.511Z,14.47
2023-10-23T10:22:37.204Z,14.55
2023-10-23T10:25:09.150Z,14.72
2023-10-23T10:27:36.363Z,14.79
2023-10-23T10:30:09.286Z,14.80
2023-10-23T10:34:25.025Z,14.82
2023-10-23T10:35:41.555Z,14.84
2023-10-23T10:38:14.244Z,15.06
2023-10-23T10:41:01.189Z,15.12
2023-10-23T10:43:34.161Z,15.07
2023-10-23T10:46:15.518Z,15.23
2023-10-23T10:48:47.760Z,15.26
2023-10-23T10:51:20.374Z,15.34
2023-10-23T10:53:48.079Z,15.36
2023-10-23T10:56:15.351Z,15.44
2023-10-23T10:58:45.432Z,15.57
2023-10-23T11:01:12.736Z,15.70
2023-10-23T11:03:39.774Z,15.76
2023-10-23T11:06:07.224Z,15.89
2023-10-23T11:08:35.260Z,15.94
2023-10-23T11:11:03.531Z,16.10
2023-10-23T11:13:30.514Z,16.18
2023-10-23T11:15:57.375Z,16.28
2023-10-23T11:18:24.211Z,16.30
2023-10-23T11:20:51.119Z,16.25
2023-10-23T11:23:23.418Z,16.19
2023-10-23T11:25:51.620Z,16.21
2023-10-23T11:28:19.030Z,16.20
2023-10-23T11:30:51.406Z,16.16
2023-10-23T11:33:20.357Z,16.16
2023-10-23T11:35:47.202Z,16.16
2023-10-23T11:38:19.630Z,16.13
2023-10-23T11:40:47.158Z,16.27
2023-10-23T11:43:17.119Z,16.33
2023-10-23T11:45:46.807Z,16.40
2023-10-23T11:48:14.073Z,17.29
2023-10-23T11:50:44.123Z,17.98
2023-10-23T11:53:10.967Z,17.70
2023-10-23T11:55:39.109Z,17.36
2023-10-23T11:58:06.154Z,17.55
2023-10-23T12:00:36.745Z,17.35
2023-10-23T12:03:05.802Z,17.20
2023-10-23T12:05:32.961Z,17.02
2023-10-23T12:07:59.731Z,16.92
2023-10-23T12:10:27.668Z,16.90
2023-10-23T12:12:56.054Z,16.88
2023-10-23T12:15:28.636Z,16.91
2023-10-23T12:18:03.696Z,17.17
2023-10-23T12:20:31.080Z,17.55
2023-10-23T12:22:57.862Z,17.93
2023-10-23T12:25:24.743Z,18.15
2023-10-23T12:27:52.289Z,18.26
2023-10-23T12:30:24.169Z,18.28
2023-10-23T12:33:11.623Z,18.26
2023-10-23T12:35:41.262Z,18.29
2023-10-23T12:38:08.238Z,18.39
2023-10-23T12:40:37.225Z,18.51
2023-10-23T12:43:05.380Z,18.65
2023-10-23T12:45:32.786Z,18.80
2023-10-23T12:47:59.928Z,18.90
2023-10-23T12:50:26.744Z,19.10
2023-10-23T12:52:53.578Z,19.16
2023-10-23T12:55:20.407Z,19.31
